Time;durP1;ratioP1;P1;durP2;ratioP2;P2;SDS_P1;SDS_P2;PMS_P1;PMS_P2;Temp;Humidity;BMP_temperature;BMP_pressure;BME280_temperature;BME280_humidity;BME280_pressure;Samples;Min_cycle;Max_cycle;Signal;HPM_P1;HPM_P2
2021/07/26 00:00:59;;;;;;;8.80;4.40;;;;;;;;;;3576477;40;20417;-83
2021/07/26 00:03:27;;;;;;;5.63;4.80;;;;;;;;;;3576568;40;20499;-84
2021/07/26 00:05:54;;;;;;;9.57;6.20;;;;;;;;;;3561207;40;20405;-85
2021/07/26 00:08:20;;;;;;;7.67;4.93;;;;;;;;;;3578771;40;21557;-85
2021/07/26 00:10:49;;;;;;;5.60;5.10;;;;;;;;;;3550819;40;20424;-84
2021/07/26 00:13:25;;;;;;;5.07;4.57;;;;;;;;;;3569483;40;20401;-85
2021/07/26 00:15:51;;;;;;;6.53;5.87;;;;;;;;;;3570299;40;20434;-85
2021/07/26 00:18:18;;;;;;;10.90;6.77;;;;;;;;;;3568116;40;20491;-84
2021/07/26 00:20:51;;;;;;;5.33;4.80;;;;;;;;;;3557844;40;20689;-86
2021/07/26 00:23:20;;;;;;;6.40;4.83;;;;;;;;;;3576635;40;20393;-85
2021/07/26 00:25:48;;;;;;;5.57;5.07;;;;;;;;;;3577331;40;20495;-85
2021/07/26 00:28:15;;;;;;;6.57;5.43;;;;;;;;;;3570122;40;20480;-85
2021/07/26 00:30:41;;;;;;;10.93;5.83;;;;;;;;;;3568915;40;20418;-85
2021/07/26 00:33:39;;;;;;;4.83;4.40;;;;;;;;;;3569647;40;20397;-86
2021/07/26 00:36:05;;;;;;;7.70;4.77;;;;;;;;;;3553329;40;20414;-86
2021/07/26 00:38:31;;;;;;;6.70;4.50;;;;;;;;;;3549956;40;20447;-85
2021/07/26 00:40:58;;;;;;;6.43;4.40;;;;;;;;;;3557291;40;20414;-85
2021/07/26 00:43:25;;;;;;;6.33;4.63;;;;;;;;;;3548337;40;20522;-85
2021/07/26 00:45:51;;;;;;;6.53;4.57;;;;;;;;;;3554452;40;20424;-85
2021/07/26 00:48:17;;;;;;;9.20;4.23;;;;;;;;;;3545323;40;21257;-84
2021/07/26 00:50:44;;;;;;;10.67;4.53;;;;;;;;;;3544816;40;20429;-85
2021/07/26 00:53:37;;;;;;;7.67;5.13;;;;;;;;;;3555307;40;21865;-83
2021/07/26 00:56:05;;;;;;;9.20;5.00;;;;;;;;;;3551460;40;20447;-83
2021/07/26 00:58:31;;;;;;;7.60;5.03;;;;;;;;;;3554177;40;20591;-84
2021/07/26 01:01:01;;;;;;;7.70;4.43;;;;;;;;;;3547657;40;20619;-85
2021/07/26 01:03:28;;;;;;;7.60;4.27;;;;;;;;;;3557126;40;20598;-85
2021/07/26 01:05:54;;;;;;;5.50;4.53;;;;;;;;;;3588478;23;20515;-78
2021/07/26 01:08:20;;;;;;;10.20;4.20;;;;;;;;;;3570950;40;20410;-78
2021/07/26 01:10:46;;;;;;;9.00;4.90;;;;;;;;;;3575186;40;20469;-78
2021/07/26 01:13:12;;;;;;;9.90;3.90;;;;;;;;;;3576569;40;20398;-78
2021/07/26 01:15:39;;;;;;;7.30;4.23;;;;;;;;;;3576716;40;20410;-78
2021/07/26 01:18:14;;;;;;;6.23;3.70;;;;;;;;;;3573689;40;20647;-78
2021/07/26 01:20:41;;;;;;;4.53;4.13;;;;;;;;;;3567785;40;20452;-78
2021/07/26 01:23:07;;;;;;;3.50;3.20;;;;;;;;;;3574149;40;21143;-79
2021/07/26 01:25:37;;;;;;;4.53;4.13;;;;;;;;;;3567024;40;22814;-79
2021/07/26 01:28:03;;;;;;;8.83;4.17;;;;;;;;;;3573620;40;20528;-78
2021/07/26 01:30:31;;;;;;;6.70;4.00;;;;;;;;;;3565512;40;20417;-79
2021/07/26 01:32:57;;;;;;;4.30;3.90;;;;;;;;;;3575917;40;21134;-78
2021/07/26 01:35:23;;;;;;;5.40;4.10;;;;;;;;;;3575651;40;21496;-79
2021/07/26 01:37:49;;;;;;;7.20;4.70;;;;;;;;;;3565480;40;20484;-79
2021/07/26 01:40:16;;;;;;;4.63;3.87;;;;;;;;;;3575881;40;20469;-78
2021/07/26 01:42:43;;;;;;;5.00;3.30;;;;;;;;;;3575552;40;20441;-78
2021/07/26 01:45:10;;;;;;;5.70;4.50;;;;;;;;;;3574086;40;20409;-79
2021/07/26 01:47:38;;;;;;;5.13;4.07;;;;;;;;;;3565527;40;20398;-78
2021/07/26 01:50:08;;;;;;;7.77;4.83;;;;;;;;;;3573670;40;20409;-78
2021/07/26 01:52:34;;;;;;;6.60;4.07;;;;;;;;;;3575226;40;20381;-78
2021/07/26 01:55:01;;;;;;;4.87;4.47;;;;;;;;;;3573613;40;20743;-79
2021/07/26 01:57:27;;;;;;;5.17;4.67;;;;;;;;;;3566976;40;20448;-78
2021/07/26 01:59:54;;;;;;;10.40;4.63;;;;;;;;;;3575318;40;20414;-78
2021/07/26 02:02:20;;;;;;;6.70;4.20;;;;;;;;;;3576022;40;20418;-79
2021/07/26 02:04:46;;;;;;;5.70;4.60;;;;;;;;;;3574442;40;20421;-79
2021/07/26 02:07:12;;;;;;;8.30;4.73;;;;;;;;;;3575743;40;20455;-79
2021/07/26 02:09:38;;;;;;;6.23;4.03;;;;;;;;;;3564984;40;21067;-79
2021/07/26 02:12:04;;;;;;;5.93;4.53;;;;;;;;;;3566879;40;21168;-79
2021/07/26 02:14:30;;;;;;;7.13;4.80;;;;;;;;;;3558321;40;20402;-79
2021/07/26 02:16:56;;;;;;;5.67;3.87;;;;;;;;;;3559959;40;20472;-79
2021/07/26 02:19:22;;;;;;;5.50;4.20;;;;;;;;;;3575490;40;20413;-79
2021/07/26 02:21:49;;;;;;;5.17;4.70;;;;;;;;;;3577647;40;21201;-79
2021/07/26 02:24:15;;;;;;;4.17;3.87;;;;;;;;;;3567533;40;20410;-79
2021/07/26 02:26:42;;;;;;;3.90;3.50;;;;;;;;;;3560017;40;20408;-79
2021/07/26 02:29:08;;;;;;;5.00;4.60;;;;;;;;;;3576277;40;20513;-80
2021/07/26 02:31:34;;;;;;;3.90;3.60;;;;;;;;;;3574920;40;20473;-79
2021/07/26 02:34:00;;;;;;;9.87;4.27;;;;;;;;;;3568692;40;20393;-79
2021/07/26 02:36:26;;;;;;;4.80;4.30;;;;;;;;;;3551938;40;20413;-79
2021/07/26 02:38:52;;;;;;;7.80;4.80;;;;;;;;;;3577373;40;20393;-79
2021/07/26 02:41:18;;;;;;;6.43;5.03;;;;;;;;;;3567415;40;20393;-79
2021/07/26 02:43:45;;;;;;;4.80;4.40;;;;;;;;;;3574232;40;20865;-79
2021/07/26 02:46:13;;;;;;;7.13;4.83;;;;;;;;;;3585087;40;20429;-78
2021/07/26 02:48:45;;;;;;;16.60;4.33;;;;;;;;;;3576047;40;21261;-79
2021/07/26 02:51:11;;;;;;;7.93;4.47;;;;;;;;;;3580722;40;20393;-78
2021/07/26 02:53:38;;;;;;;9.00;4.27;;;;;;;;;;3567490;40;20417;-77
2021/07/26 02:56:08;;;;;;;5.50;4.60;;;;;;;;;;3568912;40;20444;-78
2021/07/26 02:58:34;;;;;;;4.60;4.10;;;;;;;;;;3580365;40;20441;-78
2021/07/26 03:01:01;;;;;;;8.70;4.87;;;;;;;;;;3571226;40;20373;-78
2021/07/26 03:03:27;;;;;;;5.13;4.03;;;;;;;;;;3564098;40;20433;-78
2021/07/26 03:05:53;;;;;;;4.13;3.83;;;;;;;;;;3571173;40;20420;-79
2021/07/26 03:08:19;;;;;;;8.50;5.40;;;;;;;;;;3570236;40;20429;-78
2021/07/26 03:10:45;;;;;;;7.40;4.20;;;;;;;;;;3571910;40;20416;-78
2021/07/26 03:13:11;;;;;;;7.60;4.37;;;;;;;;;;3569646;40;20405;-78
2021/07/26 03:15:37;;;;;;;4.00;3.70;;;;;;;;;;3573917;40;20433;-78
2021/07/26 03:18:05;;;;;;;4.37;3.93;;;;;;;;;;3574896;40;21342;-78
2021/07/26 03:20:58;;;;;;;5.00;4.60;;;;;;;;;;3583942;40;20438;-79
2021/07/26 03:23:24;;;;;;;4.53;4.13;;;;;;;;;;3557021;40;20407;-79
2021/07/26 03:25:50;;;;;;;4.83;4.17;;;;;;;;;;3554935;40;20993;-79
2021/07/26 03:28:16;;;;;;;5.37;4.47;;;;;;;;;;3552783;40;20436;-79
2021/07/26 03:30:44;;;;;;;6.37;5.03;;;;;;;;;;3555378;40;20411;-79
2021/07/26 03:33:11;;;;;;;5.17;4.67;;;;;;;;;;3556684;40;20419;-79
2021/07/26 03:35:38;;;;;;;6.13;4.70;;;;;;;;;;3547768;40;21358;-79
2021/07/26 03:38:05;;;;;;;6.50;4.00;;;;;;;;;;3564362;40;20420;-79
2021/07/26 03:40:31;;;;;;;8.00;4.20;;;;;;;;;;3545075;40;20467;-79
2021/07/26 03:42:57;;;;;;;5.97;5.37;;;;;;;;;;3551477;40;20519;-79
2021/07/26 03:45:24;;;;;;;6.70;4.67;;;;;;;;;;3552983;40;20407;-78
2021/07/26 03:47:50;;;;;;;6.07;4.53;;;;;;;;;;3551123;40;20435;-79
2021/07/26 03:50:17;;;;;;;6.70;4.10;;;;;;;;;;3557729;40;21167;-78
2021/07/26 03:52:47;;;;;;;6.30;4.30;;;;;;;;;;3551598;40;20408;-79
2021/07/26 03:55:16;;;;;;;5.20;3.93;;;;;;;;;;3562607;40;20395;-79
2021/07/26 03:57:43;;;;;;;5.30;4.30;;;;;;;;;;3552093;40;20419;-79
2021/07/26 04:00:39;;;;;;;5.20;3.93;;;;;;;;;;3566444;40;20398;-79
2021/07/26 04:05:50;;;;;;;6.03;3.90;;;;;;;;;;3575076;40;20893;-79
2021/07/26 04:08:26;;;;;;;5.03;4.03;;;;;;;;;;3581485;40;20527;-78
2021/07/26 04:11:02;;;;;;;6.63;4.50;;;;;;;;;;3578888;40;21107;-78
2021/07/26 04:13:28;;;;;;;4.40;4.00;;;;;;;;;;3569732;40;20492;-78
2021/07/26 04:15:54;;;;;;;4.70;3.53;;;;;;;;;;3579272;40;20414;-78
2021/07/26 04:18:20;;;;;;;6.17;4.97;;;;;;;;;;3572437;40;20442;-78
2021/07/26 04:20:46;;;;;;;5.53;4.13;;;;;;;;;;3581468;40;21159;-78
2021/07/26 04:23:12;;;;;;;4.63;4.23;;;;;;;;;;3573108;40;20425;-78
2021/07/26 04:25:38;;;;;;;5.70;4.00;;;;;;;;;;3580036;40;20749;-78
2021/07/26 04:28:04;;;;;;;5.77;4.07;;;;;;;;;;3573066;40;20422;-78
2021/07/26 04:30:30;;;;;;;5.63;5.03;;;;;;;;;;3570550;40;20422;-78
2021/07/26 04:32:57;;;;;;;7.40;4.17;;;;;;;;;;3579136;40;20429;-78
2021/07/26 04:35:23;;;;;;;4.23;3.83;;;;;;;;;;3579254;40;20440;-80
2021/07/26 04:37:51;;;;;;;6.43;4.30;;;;;;;;;;3573684;40;20445;-79
2021/07/26 04:40:18;;;;;;;4.83;4.30;;;;;;;;;;3578925;40;20436;-78
2021/07/26 04:42:46;;;;;;;4.10;3.70;;;;;;;;;;3566164;40;20485;-80
2021/07/26 04:45:13;;;;;;;6.20;4.60;;;;;;;;;;3564943;40;20735;-79
2021/07/26 04:47:44;;;;;;;6.27;5.07;;;;;;;;;;3575069;40;20433;-81
2021/07/26 04:50:10;;;;;;;6.67;4.70;;;;;;;;;;3571052;40;20444;-79
2021/07/26 04:52:37;;;;;;;5.53;4.40;;;;;;;;;;3572323;40;20414;-79
2021/07/26 04:55:03;;;;;;;5.80;5.20;;;;;;;;;;3581283;40;20413;-79
2021/07/26 04:57:30;;;;;;;4.50;3.70;;;;;;;;;;3570828;40;20690;-78
2021/07/26 05:00:03;;;;;;;4.50;4.00;;;;;;;;;;3564688;40;20504;-80
2021/07/26 05:02:30;;;;;;;3.93;3.63;;;;;;;;;;3574161;40;20394;-78
2021/07/26 05:04:56;;;;;;;4.60;4.20;;;;;;;;;;3573593;40;20529;-78
2021/07/26 05:07:22;;;;;;;5.30;3.97;;;;;;;;;;3574453;40;22620;-77
2021/07/26 05:09:48;;;;;;;4.10;3.70;;;;;;;;;;3564612;40;20486;-78
2021/07/26 05:12:14;;;;;;;6.53;5.93;;;;;;;;;;3579196;40;20423;-78
2021/07/26 05:14:42;;;;;;;3.67;3.37;;;;;;;;;;3571692;40;20434;-78
2021/07/26 05:17:09;;;;;;;5.00;4.53;;;;;;;;;;3565065;40;21200;-78
2021/07/26 05:19:36;;;;;;;4.20;3.80;;;;;;;;;;3569500;40;20735;-81
2021/07/26 05:22:08;;;;;;;4.50;4.10;;;;;;;;;;3571974;40;20416;-78
2021/07/26 05:24:34;;;;;;;3.80;3.43;;;;;;;;;;3564292;40;20481;-79
2021/07/26 05:27:09;;;;;;;4.30;3.90;;;;;;;;;;3574917;40;20441;-78
2021/07/26 05:29:35;;;;;;;3.20;3.00;;;;;;;;;;3570535;40;22330;-79
2021/07/26 05:32:02;;;;;;;5.23;3.67;;;;;;;;;;3581259;40;21108;-79
2021/07/26 05:34:31;;;;;;;4.20;3.27;;;;;;;;;;3570399;40;21118;-79
2021/07/26 05:36:59;;;;;;;4.30;4.00;;;;;;;;;;3579136;40;20769;-79
2021/07/26 05:39:26;;;;;;;4.37;3.33;;;;;;;;;;3582100;40;20390;-79
2021/07/26 05:41:53;;;;;;;4.27;3.87;;;;;;;;;;3576684;40;20446;-77
2021/07/26 05:44:19;;;;;;;4.53;3.63;;;;;;;;;;3568132;40;20434;-78
2021/07/26 05:46:46;;;;;;;3.80;3.20;;;;;;;;;;3582686;40;20808;-78
2021/07/26 05:49:12;;;;;;;6.60;4.17;;;;;;;;;;3559605;40;20495;-78
2021/07/26 05:51:40;;;;;;;3.93;3.63;;;;;;;;;;3567825;40;20417;-78
2021/07/26 05:54:08;;;;;;;4.53;3.60;;;;;;;;;;3571128;40;20405;-80
2021/07/26 05:56:41;;;;;;;4.30;2.83;;;;;;;;;;3572957;40;20572;-83
2021/07/26 05:59:08;;;;;;;3.77;3.37;;;;;;;;;;3575041;40;20451;-79
2021/07/26 06:01:47;;;;;;;4.23;3.83;;;;;;;;;;3564983;40;20424;-78
2021/07/26 06:04:19;;;;;;;4.43;4.03;;;;;;;;;;3577890;40;20825;-78
2021/07/26 06:06:46;;;;;;;3.53;3.23;;;;;;;;;;3573396;40;20521;-78
2021/07/26 06:09:12;;;;;;;3.83;3.50;;;;;;;;;;3571383;40;20457;-78
2021/07/26 06:11:40;;;;;;;5.37;3.63;;;;;;;;;;3581004;40;20405;-79
2021/07/26 06:14:07;;;;;;;4.53;3.63;;;;;;;;;;3570797;40;21117;-79
2021/07/26 06:16:33;;;;;;;5.67;3.67;;;;;;;;;;3573640;40;20425;-79
2021/07/26 06:19:00;;;;;;;3.97;2.97;;;;;;;;;;3571715;40;20396;-78
2021/07/26 06:21:27;;;;;;;3.60;3.30;;;;;;;;;;3571594;40;20476;-79
2021/07/26 06:23:53;;;;;;;3.73;3.43;;;;;;;;;;3564182;40;21184;-79
2021/07/26 06:26:20;;;;;;;3.90;3.60;;;;;;;;;;3569537;40;20412;-78
2021/07/26 06:28:52;;;;;;;3.80;3.10;;;;;;;;;;3573179;40;20406;-79
2021/07/26 06:31:18;;;;;;;3.80;3.50;;;;;;;;;;3573589;40;20457;-78
2021/07/26 06:33:46;;;;;;;4.90;3.17;;;;;;;;;;3569404;40;21149;-78
2021/07/26 06:36:12;;;;;;;4.30;3.90;;;;;;;;;;3571452;40;20397;-78
2021/07/26 06:38:40;;;;;;;3.00;2.80;;;;;;;;;;3572396;40;20483;-78
2021/07/26 06:41:07;;;;;;;4.80;3.00;;;;;;;;;;3580985;40;20414;-78
2021/07/26 06:43:34;;;;;;;7.53;4.40;;;;;;;;;;3578640;40;20719;-79
2021/07/26 06:46:00;;;;;;;4.30;2.97;;;;;;;;;;3584268;40;20425;-78
2021/07/26 06:48:27;;;;;;;3.23;2.87;;;;;;;;;;3567326;40;20402;-78
2021/07/26 06:50:55;;;;;;;4.10;3.70;;;;;;;;;;3581897;40;20416;-79
2021/07/26 06:53:21;;;;;;;3.30;2.90;;;;;;;;;;3577653;40;20398;-78
2021/07/26 06:55:49;;;;;;;3.93;3.57;;;;;;;;;;3564285;40;20583;-78
2021/07/26 06:58:17;;;;;;;3.20;2.90;;;;;;;;;;3581138;40;20420;-79
2021/07/26 07:00:43;;;;;;;4.97;3.60;;;;;;;;;;3564841;40;20501;-79
2021/07/26 07:03:10;;;;;;;5.87;3.10;;;;;;;;;;3574950;40;20426;-79
2021/07/26 07:05:36;;;;;;;4.10;3.50;;;;;;;;;;3574247;40;21702;-79
2021/07/26 07:08:03;;;;;;;3.80;3.50;;;;;;;;;;3581656;39;20977;-78
2021/07/26 07:10:32;;;;;;;4.47;3.60;;;;;;;;;;3576105;40;20632;-79
2021/07/26 07:12:58;;;;;;;3.90;3.47;;;;;;;;;;3584726;40;20448;-79
2021/07/26 07:15:24;;;;;;;3.13;2.83;;;;;;;;;;3575616;40;20407;-79
2021/07/26 07:17:50;;;;;;;4.93;3.87;;;;;;;;;;3573004;40;20405;-79
2021/07/26 07:20:17;;;;;;;3.83;3.00;;;;;;;;;;3575972;40;20421;-78
2021/07/26 07:22:44;;;;;;;3.30;3.10;;;;;;;;;;3582650;40;20802;-79
2021/07/26 07:25:10;;;;;;;4.70;4.07;;;;;;;;;;3574296;40;20539;-78
2021/07/26 07:27:36;;;;;;;2.97;2.77;;;;;;;;;;3576147;40;20397;-79
2021/07/26 07:30:02;;;;;;;5.00;4.33;;;;;;;;;;3577246;40;20460;-79
2021/07/26 07:32:29;;;;;;;3.70;3.40;;;;;;;;;;3574047;40;20417;-79
2021/07/26 07:34:55;;;;;;;3.43;3.23;;;;;;;;;;3583406;40;20462;-79
2021/07/26 07:37:21;;;;;;;3.47;3.17;;;;;;;;;;3565617;40;20394;-79
2021/07/26 07:39:47;;;;;;;3.73;3.40;;;;;;;;;;3575700;40;20435;-80
2021/07/26 07:42:13;;;;;;;4.33;3.70;;;;;;;;;;3568752;40;20564;-79
2021/07/26 07:44:39;;;;;;;4.30;3.27;;;;;;;;;;3574878;40;20426;-78
2021/07/26 07:47:06;;;;;;;4.67;4.27;;;;;;;;;;3575061;40;20405;-79
2021/07/26 07:49:32;;;;;;;3.83;3.53;;;;;;;;;;3583003;40;20411;-79
2021/07/26 07:51:58;;;;;;;4.80;4.20;;;;;;;;;;3583128;40;20416;-78
2021/07/26 07:54:24;;;;;;;4.70;4.20;;;;;;;;;;3576835;40;20402;-78
2021/07/26 07:56:52;;;;;;;5.13;4.73;;;;;;;;;;3585174;40;20433;-78
2021/07/26 07:59:18;;;;;;;3.87;3.57;;;;;;;;;;3583436;40;20428;-78
2021/07/26 08:01:44;;;;;;;4.83;4.53;;;;;;;;;;3581797;40;20410;-78
2021/07/26 08:04:11;;;;;;;4.47;3.43;;;;;;;;;;3585069;40;20418;-78
2021/07/26 08:06:41;;;;;;;4.13;3.23;;;;;;;;;;3564719;40;20399;-78
2021/07/26 08:09:07;;;;;;;4.03;3.80;;;;;;;;;;3583120;40;20425;-78
2021/07/26 08:11:33;;;;;;;4.10;3.80;;;;;;;;;;3572947;40;20473;-78
2021/07/26 08:13:59;;;;;;;5.47;4.27;;;;;;;;;;3574343;40;21349;-78
2021/07/26 08:16:25;;;;;;;5.00;4.70;;;;;;;;;;3575561;40;20401;-78
2021/07/26 08:18:54;;;;;;;4.63;3.80;;;;;;;;;;3575532;40;20403;-79
2021/07/26 08:21:21;;;;;;;4.23;3.80;;;;;;;;;;3584829;40;20420;-78
2021/07/26 08:23:48;;;;;;;5.00;4.70;;;;;;;;;;3568464;40;20796;-79
2021/07/26 08:26:21;;;;;;;5.30;4.90;;;;;;;;;;3574028;40;20393;-79
2021/07/26 08:28:47;;;;;;;5.50;4.67;;;;;;;;;;3581291;40;20398;-79
2021/07/26 08:31:14;;;;;;;5.80;5.30;;;;;;;;;;3577026;40;20834;-79
2021/07/26 08:33:40;;;;;;;6.27;5.67;;;;;;;;;;3572952;40;20557;-79
2021/07/26 08:36:06;;;;;;;5.10;4.80;;;;;;;;;;3574538;40;20565;-79
2021/07/26 08:38:33;;;;;;;5.13;4.73;;;;;;;;;;3581644;40;20409;-79
2021/07/26 08:41:00;;;;;;;6.37;4.70;;;;;;;;;;3571434;40;20455;-79
2021/07/26 08:43:27;;;;;;;5.80;4.77;;;;;;;;;;3575192;40;20501;-79
2021/07/26 08:45:53;;;;;;;6.03;5.70;;;;;;;;;;3582388;40;20394;-79
2021/07/26 08:48:19;;;;;;;5.83;5.27;;;;;;;;;;3579449;40;20402;-79
2021/07/26 08:50:47;;;;;;;6.37;5.90;;;;;;;;;;3570661;40;20422;-78
2021/07/26 08:53:13;;;;;;;6.23;5.50;;;;;;;;;;3579431;40;20514;-78
2021/07/26 08:55:41;;;;;;;5.77;5.27;;;;;;;;;;3562018;40;20409;-78
2021/07/26 08:58:07;;;;;;;5.87;5.27;;;;;;;;;;3579869;40;20434;-78
2021/07/26 09:00:33;;;;;;;6.40;5.90;;;;;;;;;;3579557;40;20439;-78
2021/07/26 09:03:01;;;;;;;8.30;5.03;;;;;;;;;;3571524;40;21192;-78
2021/07/26 09:05:28;;;;;;;6.27;5.87;;;;;;;;;;3571123;40;20458;-78
2021/07/26 09:07:54;;;;;;;5.77;5.37;;;;;;;;;;3570782;40;20423;-78
2021/07/26 09:10:24;;;;;;;5.80;5.30;;;;;;;;;;3581420;40;20393;-78
2021/07/26 09:12:54;;;;;;;6.30;5.90;;;;;;;;;;3571320;40;20940;-78
2021/07/26 09:15:24;;;;;;;5.90;5.40;;;;;;;;;;3569921;40;20453;-78
2021/07/26 09:17:51;;;;;;;5.27;4.97;;;;;;;;;;3566927;40;20434;-80
2021/07/26 09:20:20;;;;;;;6.40;6.00;;;;;;;;;;3570191;40;20429;-78
2021/07/26 09:22:46;;;;;;;6.30;5.90;;;;;;;;;;3578927;40;20451;-78
2021/07/26 09:25:21;;;;;;;6.50;6.00;;;;;;;;;;3571568;40;20488;-78
2021/07/26 09:28:14;;;;;;;5.97;5.47;;;;;;;;;;3562956;40;20962;-78
2021/07/26 09:30:47;;;;;;;5.60;5.30;;;;;;;;;;3575390;40;20511;-78
2021/07/26 09:33:32;;;;;;;10.30;5.47;;;;;;;;;;3569166;40;20580;-79
2021/07/26 09:36:14;;;;;;;6.73;6.13;;;;;;;;;;3579085;40;20397;-79
2021/07/26 09:38:42;;;;;;;6.60;5.50;;;;;;;;;;3581044;40;20411;-79
2021/07/26 09:41:09;;;;;;;6.13;5.73;;;;;;;;;;3573003;40;20422;-79
2021/07/26 09:43:35;;;;;;;7.80;7.10;;;;;;;;;;3581099;40;20418;-78
2021/07/26 09:46:01;;;;;;;7.67;7.20;;;;;;;;;;3579570;40;20398;-78
2021/07/26 09:48:30;;;;;;;6.60;6.20;;;;;;;;;;3572861;40;20414;-78
2021/07/26 09:50:57;;;;;;;7.77;7.20;;;;;;;;;;3578774;40;20413;-78
2021/07/26 09:53:23;;;;;;;6.83;6.37;;;;;;;;;;3579915;40;20418;-78
2021/07/26 09:55:51;;;;;;;7.30;6.10;;;;;;;;;;3570991;40;20433;-79
2021/07/26 09:58:18;;;;;;;7.30;6.70;;;;;;;;;;3581612;40;20546;-78
2021/07/26 10:00:45;;;;;;;7.27;6.63;;;;;;;;;;3577903;40;20414;-78
2021/07/26 10:03:12;;;;;;;7.87;7.17;;;;;;;;;;3571419;40;20433;-78
2021/07/26 10:05:39;;;;;;;10.53;8.33;;;;;;;;;;3567220;40;21014;-78
2021/07/26 10:08:06;;;;;;;7.80;7.07;;;;;;;;;;3573539;39;20435;-78
2021/07/26 10:10:34;;;;;;;8.10;7.70;;;;;;;;;;3567709;40;20402;-78
2021/07/26 10:13:00;;;;;;;8.03;7.53;;;;;;;;;;3566233;40;20437;-78
2021/07/26 10:15:28;;;;;;;7.50;7.10;;;;;;;;;;3572421;40;21180;-78
2021/07/26 10:17:54;;;;;;;6.70;6.20;;;;;;;;;;3560648;40;20421;-77
2021/07/26 10:20:22;;;;;;;8.07;7.57;;;;;;;;;;3571004;40;20409;-77
2021/07/26 10:22:53;;;;;;;7.57;7.07;;;;;;;;;;3569386;40;20411;-77
2021/07/26 10:25:24;;;;;;;7.50;7.03;;;;;;;;;;3562693;40;20406;-77
2021/07/26 10:27:51;;;;;;;6.90;6.50;;;;;;;;;;3562847;40;20406;-77
2021/07/26 10:30:38;;;;;;;6.23;5.93;;;;;;;;;;3562700;40;20757;-78
2021/07/26 10:33:05;;;;;;;6.30;5.90;;;;;;;;;;3569042;40;21120;-77
2021/07/26 10:35:36;;;;;;;5.80;5.30;;;;;;;;;;3564271;40;20448;-77
2021/07/26 10:38:02;;;;;;;7.80;5.73;;;;;;;;;;3574095;40;21095;-79
2021/07/26 10:40:32;;;;;;;4.93;4.63;;;;;;;;;;3564934;40;20409;-78
2021/07/26 10:43:02;;;;;;;5.20;4.90;;;;;;;;;;3565775;40;20469;-78
2021/07/26 10:45:31;;;;;;;5.37;4.90;;;;;;;;;;3564045;40;21179;-77
2021/07/26 10:48:16;;;;;;;5.90;5.50;;;;;;;;;;3581827;40;20393;-78
2021/07/26 10:50:46;;;;;;;5.40;5.07;;;;;;;;;;3576784;40;20418;-78
2021/07/26 10:53:33;;;;;;;4.83;4.17;;;;;;;;;;3573155;40;20415;-78
2021/07/26 10:56:09;;;;;;;5.10;4.70;;;;;;;;;;3575030;40;20524;-78
2021/07/26 10:58:38;;;;;;;5.20;4.80;;;;;;;;;;3566640;40;20829;-77
2021/07/26 11:01:20;;;;;;;5.50;5.07;;;;;;;;;;3575781;40;20408;-78
2021/07/26 11:03:46;;;;;;;6.07;5.67;;;;;;;;;;3565264;40;20421;-78
2021/07/26 11:06:32;;;;;;;5.23;4.73;;;;;;;;;;3564146;40;20405;-78
2021/07/26 11:09:18;;;;;;;6.10;5.57;;;;;;;;;;3566112;40;21260;-78
2021/07/26 11:11:45;;;;;;;5.47;5.17;;;;;;;;;;3501808;40;20431;-78
2021/07/26 11:14:27;;;;;;;5.17;4.80;;;;;;;;;;3513873;40;20414;-78
2021/07/26 11:17:00;;;;;;;5.63;5.13;;;;;;;;;;3518057;40;21131;-79
2021/07/26 11:19:44;;;;;;;8.00;4.90;;;;;;;;;;3518523;40;20422;-79
2021/07/26 11:22:17;;;;;;;6.10;5.50;;;;;;;;;;3517590;40;20421;-79
2021/07/26 11:24:44;;;;;;;6.20;5.80;;;;;;;;;;3512293;40;21169;-78
2021/07/26 11:27:13;;;;;;;5.70;5.13;;;;;;;;;;3517012;40;20391;-78
2021/07/26 11:29:39;;;;;;;5.97;5.67;;;;;;;;;;3519482;40;20435;-79
2021/07/26 11:32:07;;;;;;;4.97;4.57;;;;;;;;;;3525408;40;20499;-79
2021/07/26 11:34:34;;;;;;;4.30;4.10;;;;;;;;;;3509099;40;20411;-77
2021/07/26 11:37:04;;;;;;;5.20;4.90;;;;;;;;;;3513806;40;20404;-79
2021/07/26 11:39:47;;;;;;;5.30;4.90;;;;;;;;;;3514841;40;20442;-78
2021/07/26 11:42:17;;;;;;;5.60;5.20;;;;;;;;;;3522437;40;20427;-78
2021/07/26 11:44:44;;;;;;;5.33;5.00;;;;;;;;;;3502793;40;20526;-79
2021/07/26 11:47:10;;;;;;;6.73;6.03;;;;;;;;;;3517436;40;20426;-78
2021/07/26 11:49:52;;;;;;;5.53;5.17;;;;;;;;;;3557092;40;20406;-78
2021/07/26 11:52:18;;;;;;;6.47;6.07;;;;;;;;;;3572165;40;20409;-79
2021/07/26 11:54:44;;;;;;;5.50;5.10;;;;;;;;;;3570752;40;20494;-78
2021/07/26 11:57:12;;;;;;;5.77;5.43;;;;;;;;;;3571504;40;20400;-78
2021/07/26 11:59:40;;;;;;;4.90;4.70;;;;;;;;;;3579758;40;20497;-78
2021/07/26 12:02:25;;;;;;;6.77;6.17;;;;;;;;;;3563296;40;20422;-79
2021/07/26 12:04:51;;;;;;;6.43;6.07;;;;;;;;;;3580883;40;20417;-79
2021/07/26 12:07:19;;;;;;;5.43;5.03;;;;;;;;;;3584177;40;20394;-79
2021/07/26 12:09:50;;;;;;;5.83;4.90;;;;;;;;;;3575999;40;20413;-79
2021/07/26 12:12:17;;;;;;;5.03;4.73;;;;;;;;;;3573678;40;20436;-79
2021/07/26 12:14:45;;;;;;;4.73;4.43;;;;;;;;;;3572518;40;20429;-78
2021/07/26 12:17:12;;;;;;;4.83;4.50;;;;;;;;;;3575362;40;20448;-79
2021/07/26 12:19:42;;;;;;;6.07;5.67;;;;;;;;;;3582345;40;20426;-79
2021/07/26 12:22:13;;;;;;;6.37;5.47;;;;;;;;;;3574858;40;20421;-79
2021/07/26 12:24:44;;;;;;;4.40;4.10;;;;;;;;;;3573389;40;20405;-79
2021/07/26 12:27:11;;;;;;;5.90;5.40;;;;;;;;;;3572984;40;20975;-79
2021/07/26 12:29:52;;;;;;;5.60;5.30;;;;;;;;;;3574522;40;20416;-79
2021/07/26 12:32:19;;;;;;;4.93;4.63;;;;;;;;;;3580588;40;20471;-79
2021/07/26 12:35:22;;;;;;;5.50;5.10;;;;;;;;;;3559155;40;20823;-79
2021/07/26 12:38:08;;;;;;;5.43;5.13;;;;;;;;;;3579586;40;20503;-79
2021/07/26 12:40:36;;;;;;;5.80;5.30;;;;;;;;;;3573605;40;20413;-78
2021/07/26 12:43:05;;;;;;;4.97;4.57;;;;;;;;;;3573582;40;20416;-80
2021/07/26 12:45:31;;;;;;;4.33;4.13;;;;;;;;;;3577552;40;21174;-78
2021/07/26 12:47:58;;;;;;;4.50;4.20;;;;;;;;;;3577569;40;20386;-78
2021/07/26 12:50:24;;;;;;;5.67;5.27;;;;;;;;;;3579908;40;20413;-78
2021/07/26 12:52:52;;;;;;;5.00;4.70;;;;;;;;;;3570574;40;20523;-79
2021/07/26 12:55:18;;;;;;;5.37;5.07;;;;;;;;;;3578966;40;20538;-79
2021/07/26 12:57:46;;;;;;;5.37;4.90;;;;;;;;;;3581494;40;20401;-78
2021/07/26 13:00:13;;;;;;;5.07;4.67;;;;;;;;;;3572785;40;20429;-79
2021/07/26 13:02:40;;;;;;;4.87;4.57;;;;;;;;;;3573628;40;20433;-78
2021/07/26 13:05:07;;;;;;;5.30;4.90;;;;;;;;;;3583093;40;20409;-79
2021/07/26 13:07:33;;;;;;;4.90;4.60;;;;;;;;;;3569147;40;20473;-77
2021/07/26 13:09:59;;;;;;;5.23;4.83;;;;;;;;;;3579382;40;20419;-78
2021/07/26 13:12:25;;;;;;;5.40;5.00;;;;;;;;;;3569309;40;20465;-78
2021/07/26 13:14:51;;;;;;;4.87;4.57;;;;;;;;;;3570425;40;20414;-78
2021/07/26 13:17:17;;;;;;;5.07;4.63;;;;;;;;;;3582237;40;20401;-78
2021/07/26 13:19:43;;;;;;;5.30;4.80;;;;;;;;;;3582872;40;20409;-78
2021/07/26 13:22:09;;;;;;;5.03;4.57;;;;;;;;;;3582888;40;20417;-79
2021/07/26 13:24:35;;;;;;;7.67;5.20;;;;;;;;;;3571708;40;20412;-78
2021/07/26 13:27:02;;;;;;;5.80;5.50;;;;;;;;;;3577327;40;20432;-77
2021/07/26 13:29:28;;;;;;;6.17;5.33;;;;;;;;;;3568789;40;20800;-78
2021/07/26 13:31:55;;;;;;;6.57;6.17;;;;;;;;;;3561721;40;20457;-78
2021/07/26 13:34:21;;;;;;;6.37;5.90;;;;;;;;;;3570416;40;20429;-78
2021/07/26 13:36:47;;;;;;;5.83;5.43;;;;;;;;;;3568502;40;20413;-78
2021/07/26 13:39:14;;;;;;;5.33;5.03;;;;;;;;;;3566352;40;20445;-78
2021/07/26 13:41:41;;;;;;;4.63;4.33;;;;;;;;;;3569500;40;22095;-78
2021/07/26 13:44:07;;;;;;;5.20;4.80;;;;;;;;;;3581354;40;20529;-78
2021/07/26 13:46:33;;;;;;;5.77;5.37;;;;;;;;;;3579271;40;20394;-78
2021/07/26 13:49:00;;;;;;;5.47;5.07;;;;;;;;;;3581167;40;21548;-78
2021/07/26 13:51:26;;;;;;;5.90;5.30;;;;;;;;;;3572121;40;20429;-78
2021/07/26 13:53:52;;;;;;;5.10;4.70;;;;;;;;;;3570259;40;20940;-78
2021/07/26 13:56:18;;;;;;;5.00;4.70;;;;;;;;;;3570560;40;20405;-77
2021/07/26 13:58:44;;;;;;;5.93;5.53;;;;;;;;;;3570086;40;20406;-78
2021/07/26 14:01:11;;;;;;;7.60;5.17;;;;;;;;;;3578311;40;20424;-79
2021/07/26 14:03:37;;;;;;;5.10;4.60;;;;;;;;;;3578571;40;20436;-78
2021/07/26 14:06:04;;;;;;;5.77;5.30;;;;;;;;;;3581584;40;20421;-79
2021/07/26 14:08:30;;;;;;;7.13;6.47;;;;;;;;;;3574913;40;20429;-78
2021/07/26 14:11:04;;;;;;;5.30;4.97;;;;;;;;;;3574856;40;20405;-79
2021/07/26 14:13:30;;;;;;;5.00;4.70;;;;;;;;;;3583441;40;20413;-79
2021/07/26 14:15:56;;;;;;;5.07;4.70;;;;;;;;;;3584598;40;20381;-79
2021/07/26 14:18:22;;;;;;;5.40;4.87;;;;;;;;;;3576571;40;20571;-78
2021/07/26 14:20:53;;;;;;;4.57;4.17;;;;;;;;;;3586929;40;20424;-78
2021/07/26 14:23:19;;;;;;;4.57;4.17;;;;;;;;;;3573864;40;20432;-78
2021/07/26 14:25:45;;;;;;;5.10;4.70;;;;;;;;;;3573708;40;20396;-78
2021/07/26 14:28:11;;;;;;;4.87;4.47;;;;;;;;;;3584357;40;20527;-78
2021/07/26 14:30:38;;;;;;;4.70;4.23;;;;;;;;;;3568186;40;20449;-78
2021/07/26 14:33:06;;;;;;;4.67;4.23;;;;;;;;;;3583937;40;20420;-79
2021/07/26 14:35:32;;;;;;;7.20;5.17;;;;;;;;;;3577591;40;20479;-78
2021/07/26 14:37:58;;;;;;;6.60;6.00;;;;;;;;;;3564719;40;20855;-78
2021/07/26 14:40:24;;;;;;;7.60;7.13;;;;;;;;;;3575419;40;20410;-78
2021/07/26 14:42:50;;;;;;;7.77;7.27;;;;;;;;;;3576416;40;20411;-78
2021/07/26 14:45:18;;;;;;;7.30;6.80;;;;;;;;;;3565320;40;20433;-78
2021/07/26 14:48:11;;;;;;;7.07;6.57;;;;;;;;;;3581912;40;20468;-79
2021/07/26 14:50:37;;;;;;;6.87;6.37;;;;;;;;;;3522091;40;20425;-79
2021/07/26 14:53:04;;;;;;;6.60;6.20;;;;;;;;;;3515672;40;20505;-78